createdAt,value
2018-10-18T00:02:22.935Z,14.91
2018-10-18T00:04:51.593Z,14.89
2018-10-18T00:07:20.260Z,14.91
2018-10-18T00:09:48.985Z,14.92
2018-10-18T00:12:17.763Z,14.91
2018-10-18T00:14:46.388Z,14.98
2018-10-18T00:17:20.054Z,14.99
2018-10-18T00:19:48.624Z,14.95
2018-10-18T00:22:17.397Z,14.95
2018-10-18T00:24:46.076Z,14.94
2018-10-18T00:27:14.841Z,14.93
2018-10-18T00:29:43.514Z,14.93
2018-10-18T00:32:12.278Z,14.91
2018-10-18T00:34:40.974Z,14.90
2018-10-18T00:37:09.647Z,14.86
2018-10-18T00:39:38.441Z,14.81
2018-10-18T00:42:07.181Z,14.81
2018-10-18T00:44:35.856Z,14.79
2018-10-18T00:47:05.072Z,14.75
2018-10-18T00:49:33.674Z,14.75
2018-10-18T00:52:02.314Z,14.75
2018-10-18T00:54:30.984Z,14.72
2018-10-18T00:56:59.626Z,14.69
2018-10-18T00:59:28.269Z,14.67
2018-10-18T01:01:57.251Z,14.66
2018-10-18T01:04:25.893Z,14.64
2018-10-18T01:06:54.598Z,14.62
2018-10-18T01:09:23.250Z,14.58
2018-10-18T01:11:52.123Z,14.57
2018-10-18T01:14:20.907Z,14.57
2018-10-18T01:16:53.709Z,14.59
2018-10-18T01:19:22.391Z,14.58
2018-10-18T01:21:50.997Z,14.56
2018-10-18T01:24:19.666Z,14.56
2018-10-18T01:26:48.296Z,14.57
2018-10-18T01:29:16.995Z,14.56
2018-10-18T01:31:45.645Z,14.56
2018-10-18T01:34:14.488Z,14.54
2018-10-18T01:36:43.147Z,14.53
2018-10-18T01:39:11.890Z,14.55
2018-10-18T01:41:41.087Z,14.52
2018-10-18T01:44:09.883Z,14.49
2018-10-18T01:46:38.666Z,14.53
2018-10-18T01:49:07.597Z,14.53
2018-10-18T01:51:36.526Z,14.49
2018-10-18T01:54:05.442Z,14.45
2018-10-18T01:56:34.030Z,14.42
2018-10-18T01:59:02.682Z,14.37
2018-10-18T02:01:31.460Z,14.37
2018-10-18T02:04:01.189Z,14.36
2018-10-18T02:06:29.913Z,14.32
2018-10-18T02:08:58.538Z,14.27
2018-10-18T02:11:27.345Z,14.25
2018-10-18T02:13:56.037Z,14.24
2018-10-18T02:16:24.673Z,14.23
2018-10-18T02:18:53.374Z,14.23
2018-10-18T02:21:22.132Z,14.25
2018-10-18T02:23:50.864Z,14.24
2018-10-18T02:26:19.554Z,14.24
2018-10-18T02:28:48.240Z,14.26
2018-10-18T02:31:17.045Z,14.28
2018-10-18T02:33:48.668Z,14.31
2018-10-18T02:36:17.367Z,14.31
2018-10-18T02:38:46.006Z,14.32
2018-10-18T02:41:14.673Z,14.30
2018-10-18T02:43:43.350Z,14.29
2018-10-18T02:46:12.146Z,14.25
2018-10-18T02:48:40.889Z,14.25
2018-10-18T02:51:09.495Z,14.22
2018-10-18T02:53:38.161Z,14.18
2018-10-18T02:56:07.330Z,14.17
2018-10-18T02:58:36.068Z,14.16
2018-10-18T03:01:04.817Z,14.13
2018-10-18T03:03:33.530Z,14.06
2018-10-18T03:06:02.293Z,13.97
2018-10-18T03:08:30.962Z,13.88
2018-10-18T03:10:59.721Z,13.83
2018-10-18T03:13:28.430Z,13.77
2018-10-18T03:15:57.236Z,13.78
2018-10-18T03:18:26.334Z,13.74
2018-10-18T03:20:55.088Z,13.72
2018-10-18T03:23:23.829Z,13.58
2018-10-18T03:25:52.562Z,13.49
2018-10-18T03:28:21.278Z,13.43
2018-10-18T03:30:50.013Z,13.44
2018-10-18T03:33:18.829Z,13.46
2018-10-18T03:35:47.584Z,13.43
2018-10-18T03:38:16.324Z,13.43
2018-10-18T03:40:45.006Z,13.42
2018-10-18T03:43:13.825Z,13.35
2018-10-18T03:45:42.665Z,13.40
2018-10-18T03:48:11.370Z,13.45
2018-10-18T03:50:40.078Z,13.37
2018-10-18T03:53:08.777Z,13.29
2018-10-18T03:55:37.590Z,13.22
2018-10-18T03:58:06.429Z,13.26
2018-10-18T04:00:35.335Z,13.25
2018-10-18T04:03:04.083Z,13.19
2018-10-18T04:05:32.792Z,13.10
2018-10-18T04:08:01.962Z,12.96
2018-10-18T04:10:30.641Z,12.89
2018-10-18T04:12:59.290Z,12.87
2018-10-18T04:15:27.892Z,12.84
2018-10-18T04:17:56.602Z,12.82
2018-10-18T04:20:25.229Z,11.26
2018-10-18T04:22:53.897Z,12.71
2018-10-18T04:25:22.624Z,12.68
2018-10-18T04:27:51.841Z,12.72
2018-10-18T04:30:20.573Z,12.76
2018-10-18T04:32:49.213Z,12.74
2018-10-18T04:35:17.897Z,12.79
2018-10-18T04:37:46.802Z,12.69
2018-10-18T04:40:15.436Z,12.72
2018-10-18T04:42:44.391Z,12.62
2018-10-18T04:45:13.073Z,12.62
2018-10-18T04:47:41.888Z,12.73
2018-10-18T04:50:10.670Z,12.84
2018-10-18T04:52:39.283Z,12.91
2018-10-18T04:55:08.299Z,13.00
2018-10-18T04:57:36.817Z,13.04
2018-10-18T05:00:09.130Z,13.03
2018-10-18T05:02:37.936Z,13.06
2018-10-18T05:05:17.819Z,13.02
2018-10-18T05:07:46.793Z,13.12
2018-10-18T05:10:15.624Z,13.17
2018-10-18T05:12:44.338Z,13.24
2018-10-18T05:15:12.880Z,13.29
2018-10-18T05:17:41.815Z,13.30
2018-10-18T05:20:10.487Z,13.35
2018-10-18T05:22:39.134Z,13.41
2018-10-18T05:25:07.962Z,13.57
2018-10-18T05:27:36.537Z,13.71
2018-10-18T05:30:08.863Z,13.74
2018-10-18T05:32:37.866Z,13.84
2018-10-18T05:35:06.845Z,14.07
2018-10-18T05:37:35.643Z,14.35
2018-10-18T05:40:04.730Z,14.61
2018-10-18T05:42:33.386Z,14.73
2018-10-18T05:45:02.222Z,14.88
2018-10-18T05:47:30.903Z,15.04
2018-10-18T05:49:59.509Z,15.12
2018-10-18T05:52:28.253Z,15.34
2018-10-18T05:54:57.030Z,15.43
2018-10-18T05:57:25.877Z,15.53
2018-10-18T05:59:54.558Z,15.42
2018-10-18T06:02:23.511Z,15.38
2018-10-18T06:04:52.289Z,15.58
2018-10-18T06:07:20.993Z,15.76
2018-10-18T06:09:49.716Z,15.86
2018-10-18T06:12:18.540Z,15.95
2018-10-18T06:14:47.718Z,15.99
2018-10-18T06:17:16.513Z,16.06
2018-10-18T06:19:45.508Z,16.31
2018-10-18T06:22:14.167Z,16.45
2018-10-18T06:24:43.070Z,16.57
2018-10-18T06:27:11.862Z,16.73
2018-10-18T06:29:40.870Z,16.82
2018-10-18T06:32:09.574Z,17.10
2018-10-18T06:34:38.529Z,17.38
2018-10-18T06:37:07.819Z,17.43
2018-10-18T06:39:36.409Z,17.57
2018-10-18T06:42:05.285Z,17.74
2018-10-18T06:44:34.051Z,18.00
2018-10-18T06:47:03.204Z,17.97
2018-10-18T06:49:32.200Z,18.10
2018-10-18T06:52:01.047Z,18.11
2018-10-18T06:54:29.970Z,17.96
2018-10-18T06:56:58.737Z,17.70
2018-10-18T06:59:27.474Z,18.56
2018-10-18T07:01:56.177Z,18.94
2018-10-18T07:04:24.876Z,18.90
2018-10-18T07:06:53.539Z,19.03
2018-10-18T07:09:22.269Z,17.97
2018-10-18T07:11:51.588Z,18.87
2018-10-18T07:14:20.685Z,19.05
2018-10-18T07:16:49.747Z,19.29
2018-10-18T07:19:18.457Z,19.63
2018-10-18T07:21:47.225Z,19.73
2018-10-18T07:24:15.982Z,19.65
2018-10-18T07:26:44.649Z,19.68
2018-10-18T07:29:13.353Z,19.79
2018-10-18T07:31:42.076Z,20.09
2018-10-18T07:34:11.312Z,20.00
2018-10-18T07:36:39.961Z,20.22
2018-10-18T07:39:11.884Z,20.09
2018-10-18T07:41:40.701Z,20.34
2018-10-18T07:44:09.896Z,20.78
2018-10-18T07:46:38.598Z,21.12
2018-10-18T07:49:07.545Z,21.34
2018-10-18T07:51:36.599Z,21.29
2018-10-18T07:54:05.593Z,21.19
2018-10-18T07:56:34.311Z,21.16
2018-10-18T07:59:03.025Z,21.34
2018-10-18T08:01:32.389Z,21.78
2018-10-18T08:04:01.422Z,21.85
2018-10-18T08:06:30.113Z,21.72
2018-10-18T08:08:58.928Z,21.90
2018-10-18T08:11:27.986Z,22.03
2018-10-18T08:13:56.752Z,22.49
2018-10-18T08:16:25.768Z,22.55
2018-10-18T08:18:54.543Z,22.70
2018-10-18T08:21:23.278Z,22.75
2018-10-18T08:23:52.285Z,22.42
2018-10-18T08:26:21.362Z,22.10
2018-10-18T08:28:50.068Z,22.00
2018-10-18T08:31:19.173Z,22.31
2018-10-18T08:33:48.182Z,22.40
2018-10-18T08:36:16.868Z,22.42
2018-10-18T08:38:45.575Z,22.58
2018-10-18T08:41:14.480Z,22.96
2018-10-18T08:43:43.253Z,23.25
2018-10-18T08:46:11.926Z,23.55
2018-10-18T08:48:40.685Z,23.70
2018-10-18T08:51:09.370Z,23.90
2018-10-18T08:53:38.501Z,23.46
2018-10-18T08:56:07.550Z,23.02
2018-10-18T08:58:36.282Z,23.18
2018-10-18T09:01:05.255Z,23.09
2018-10-18T09:03:34.239Z,23.47
2018-10-18T09:06:02.945Z,23.75
2018-10-18T09:08:31.796Z,23.35
2018-10-18T09:11:00.556Z,23.45
2018-10-18T09:13:29.277Z,23.93
2018-10-18T09:15:58.277Z,24.33
2018-10-18T09:18:26.931Z,24.25
2018-10-18T09:20:55.641Z,24.58
2018-10-18T09:23:24.876Z,24.83
2018-10-18T09:25:53.877Z,24.41
2018-10-18T09:28:22.566Z,24.49
2018-10-18T09:30:51.341Z,24.54
2018-10-18T09:33:20.048Z,24.14
2018-10-18T09:35:48.814Z,23.95
2018-10-18T09:38:17.608Z,23.86
2018-10-18T09:40:46.314Z,23.70
2018-10-18T09:43:15.043Z,24.06
2018-10-18T09:45:43.951Z,24.44
2018-10-18T09:48:12.727Z,23.44
2018-10-18T09:50:41.398Z,22.40
2018-10-18T09:53:10.136Z,24.08
2018-10-18T09:55:38.931Z,24.57
2018-10-18T09:58:07.703Z,24.68
2018-10-18T10:00:41.509Z,24.50
2018-10-18T10:03:11.649Z,24.40
2018-10-18T10:05:40.482Z,24.18
2018-10-18T10:08:09.223Z,23.46
2018-10-18T10:10:38.033Z,23.45
2018-10-18T10:13:07.556Z,23.99
2018-10-18T10:15:36.181Z,23.61
2018-10-18T10:18:05.128Z,23.02
2018-10-18T10:20:34.199Z,22.97
2018-10-18T10:23:02.977Z,23.02
2018-10-18T10:25:31.714Z,22.72
2018-10-18T10:28:00.509Z,22.95
2018-10-18T10:30:29.332Z,22.80
2018-10-18T10:32:58.090Z,22.58
2018-10-18T10:35:26.850Z,22.82
2018-10-18T10:37:55.634Z,23.05
2018-10-18T10:40:24.384Z,23.25
2018-10-18T10:42:53.329Z,23.13
2018-10-18T10:45:22.252Z,23.42
2018-10-18T10:47:51.772Z,23.72
2018-10-18T10:50:20.834Z,23.89
2018-10-18T10:52:49.501Z,23.48
2018-10-18T10:55:18.517Z,23.55
2018-10-18T10:57:47.320Z,23.82
2018-10-18T11:00:24.857Z,23.79
2018-10-18T11:02:53.658Z,23.90
2018-10-18T11:05:22.535Z,24.40
2018-10-18T11:07:51.301Z,24.75
2018-10-18T11:10:20.091Z,24.57
2018-10-18T11:12:49.201Z,24.04
2018-10-18T11:15:18.273Z,23.81
2018-10-18T11:17:47.278Z,24.08
2018-10-18T11:20:16.091Z,24.05
2018-10-18T11:22:45.057Z,24.57
2018-10-18T11:25:13.801Z,23.76
2018-10-18T11:27:42.452Z,24.06
2018-10-18T11:30:11.703Z,24.13
2018-10-18T11:32:40.371Z,24.28
2018-10-18T11:35:09.402Z,24.91
2018-10-18T11:37:38.324Z,25.09
2018-10-18T11:40:07.665Z,25.04
2018-10-18T11:42:36.579Z,24.43
2018-10-18T11:45:05.741Z,23.68
2018-10-18T11:47:34.446Z,23.83
2018-10-18T11:50:03.152Z,24.13
2018-10-18T11:52:32.106Z,24.45
2018-10-18T11:55:00.936Z,24.41
2018-10-18T11:57:29.683Z,24.00
2018-10-18T11:59:58.440Z,22.66
2018-10-18T12:02:27.400Z,23.71
2018-10-18T12:04:56.379Z,23.76
2018-10-18T12:07:25.381Z,23.76
2018-10-18T12:09:54.118Z,23.54
2018-10-18T12:12:22.847Z,23.27
2018-10-18T12:14:51.641Z,23.40
2018-10-18T12:17:20.412Z,23.57
2018-10-18T12:19:49.240Z,23.56
2018-10-18T12:22:18.055Z,23.76
2018-10-18T12:24:46.832Z,23.84
2018-10-18T12:27:15.664Z,22.81
2018-10-18T12:29:44.470Z,23.67
2018-10-18T12:32:13.242Z,23.74
2018-10-18T12:34:42.120Z,23.86
2018-10-18T12:37:10.966Z,23.88
2018-10-18T12:39:40.457Z,23.61
2018-10-18T12:42:09.733Z,23.12
2018-10-18T12:44:41.404Z,23.37
2018-10-18T12:47:11.768Z,23.39
2018-10-18T12:49:41.632Z,23.21
2018-10-18T12:52:12.416Z,23.44
2018-10-18T12:54:41.409Z,23.38
2018-10-18T12:57:12.194Z,23.05
2018-10-18T12:59:40.999Z,23.11
2018-10-18T13:02:09.819Z,23.20
2018-10-18T13:04:38.772Z,23.45
2018-10-18T13:07:07.919Z,23.53
2018-10-18T13:09:36.740Z,23.61
2018-10-18T13:12:06.308Z,23.18
2018-10-18T13:14:35.082Z,23.26
2018-10-18T13:17:03.935Z,22.81
2018-10-18T13:19:32.688Z,22.73
2018-10-18T13:22:01.812Z,22.72
2018-10-18T13:24:30.651Z,22.70
2018-10-18T13:26:59.426Z,22.67
2018-10-18T13:29:28.523Z,22.70
2018-10-18T13:31:57.456Z,22.76
2018-10-18T13:34:26.353Z,22.76
2018-10-18T13:36:55.370Z,22.70
2018-10-18T13:39:24.121Z,22.50
2018-10-18T13:41:52.954Z,22.52
2018-10-18T13:44:22.088Z,22.50
2018-10-18T13:46:50.890Z,22.39
2018-10-18T13:49:19.642Z,22.32
2018-10-18T13:51:48.804Z,22.42
2018-10-18T13:54:17.824Z,22.60
2018-10-18T13:56:46.508Z,22.65
2018-10-18T13:59:26.295Z,22.52
2018-10-18T14:01:55.013Z,22.48
2018-10-18T14:04:23.947Z,22.47
2018-10-18T14:06:52.777Z,22.33
2018-10-18T14:09:21.574Z,22.17
2018-10-18T14:11:50.405Z,22.18
2018-10-18T14:14:19.207Z,22.06
2018-10-18T14:16:47.901Z,22.10
2018-10-18T14:19:16.645Z,21.98
2018-10-18T14:21:45.858Z,21.94
2018-10-18T14:24:14.763Z,21.95
2018-10-18T14:26:43.576Z,21.92
2018-10-18T14:29:12.591Z,21.92
2018-10-18T14:31:42.089Z,21.88
2018-10-18T14:34:11.358Z,21.80
2018-10-18T14:36:40.131Z,21.78
2018-10-18T14:39:09.694Z,20.70
2018-10-18T14:41:38.839Z,21.74
2018-10-18T14:44:07.683Z,21.73
2018-10-18T14:46:36.576Z,21.69
2018-10-18T14:49:05.404Z,21.61
2018-10-18T14:51:34.462Z,21.48
2018-10-18T14:54:03.216Z,21.35
2018-10-18T14:56:31.882Z,21.27
2018-10-18T14:59:00.699Z,21.21
2018-10-18T15:01:29.450Z,21.14
2018-10-18T15:03:58.179Z,21.10
2018-10-18T15:06:26.964Z,21.00
2018-10-18T15:08:55.724Z,20.88
2018-10-18T15:11:24.464Z,20.91
2018-10-18T15:13:53.204Z,20.93
2018-10-18T15:16:21.899Z,20.72
2018-10-18T15:18:50.636Z,20.68
2018-10-18T15:21:19.339Z,20.56
2018-10-18T15:23:48.059Z,20.41
2018-10-18T15:26:16.905Z,20.31
2018-10-18T15:28:45.591Z,20.19
2018-10-18T15:31:14.277Z,20.14
2018-10-18T15:33:42.984Z,20.09
2018-10-18T15:36:11.770Z,20.01
2018-10-18T15:38:40.623Z,19.94
2018-10-18T15:41:09.237Z,19.87
2018-10-18T15:43:37.835Z,19.86
2018-10-18T15:46:06.725Z,19.94
2018-10-18T15:48:35.491Z,19.95
2018-10-18T15:51:04.258Z,19.90
2018-10-18T15:53:32.989Z,19.78
2018-10-18T15:56:01.760Z,19.74
2018-10-18T15:58:30.511Z,19.69
2018-10-18T16:00:59.209Z,19.66
2018-10-18T16:03:27.906Z,19.62
2018-10-18T16:05:56.660Z,19.56
2018-10-18T16:08:25.848Z,19.47
2018-10-18T16:10:54.670Z,19.44
2018-10-18T16:13:23.580Z,19.40
2018-10-18T16:15:54.468Z,19.41
2018-10-18T16:18:23.382Z,19.37
2018-10-18T16:20:52.296Z,19.34
2018-10-18T16:23:21.249Z,19.25
2018-10-18T16:25:50.148Z,19.20
2018-10-18T16:28:18.887Z,19.10
2018-10-18T16:30:47.991Z,19.02
2018-10-18T16:33:17.344Z,18.96
2018-10-18T16:35:46.273Z,18.92
2018-10-18T16:38:15.325Z,18.90
2018-10-18T16:40:44.067Z,18.84
2018-10-18T16:43:13.285Z,18.80
2018-10-18T16:45:42.106Z,18.78
2018-10-18T16:48:11.213Z,18.78
2018-10-18T16:50:40.121Z,18.77
2018-10-18T16:53:09.242Z,18.76
2018-10-18T16:55:38.137Z,18.76
2018-10-18T16:58:06.956Z,18.75
2018-10-18T17:00:35.770Z,18.69
2018-10-18T17:03:04.596Z,18.64
2018-10-18T17:05:33.428Z,18.55
2018-10-18T17:08:02.521Z,18.46
2018-10-18T17:10:31.424Z,18.42
2018-10-18T17:13:00.388Z,18.38
2018-10-18T17:15:29.283Z,18.35
2018-10-18T17:17:58.171Z,18.33
2018-10-18T17:20:27.204Z,18.25
2018-10-18T17:22:56.018Z,18.19
2018-10-18T17:25:25.074Z,18.18
2018-10-18T17:27:54.360Z,18.20
2018-10-18T17:30:23.243Z,18.17
2018-10-18T17:32:52.432Z,18.15
2018-10-18T17:35:21.390Z,18.12
2018-10-18T17:37:50.275Z,18.05
2018-10-18T17:40:19.975Z,18.00
2018-10-18T17:42:48.763Z,17.94
2018-10-18T17:45:17.616Z,17.77
2018-10-18T17:47:46.490Z,17.63
2018-10-18T17:50:15.345Z,17.52
2018-10-18T17:52:44.041Z,17.38
2018-10-18T17:55:12.809Z,17.32
2018-10-18T17:57:41.711Z,17.23
2018-10-18T18:00:12.261Z,17.12
2018-10-18T18:02:41.330Z,17.04
2018-10-18T18:05:10.938Z,16.98
2018-10-18T18:07:39.785Z,16.86
2018-10-18T18:10:13.303Z,16.68
2018-10-18T18:12:42.094Z,16.57
2018-10-18T18:15:11.223Z,16.51
2018-10-18T18:17:40.403Z,16.45
2018-10-18T18:20:10.494Z,16.36
2018-10-18T18:22:39.355Z,16.28
2018-10-18T18:25:10.079Z,16.20
2018-10-18T18:27:39.120Z,16.15
2018-10-18T18:30:14.345Z,16.03
2018-10-18T18:32:43.550Z,15.98
2018-10-18T18:35:12.287Z,15.98
2018-10-18T18:37:41.290Z,15.94
2018-10-18T18:40:10.860Z,15.92
2018-10-18T18:42:40.384Z,15.92
2018-10-18T18:45:14.382Z,15.88
2018-10-18T18:47:43.089Z,15.84
2018-10-18T18:50:11.902Z,15.80
2018-10-18T18:52:40.954Z,15.70
2018-10-18T18:55:10.932Z,15.68
2018-10-18T18:57:39.765Z,15.64
2018-10-18T19:00:12.390Z,15.61
2018-10-18T19:02:41.799Z,15.53
2018-10-18T19:05:10.829Z,15.46
2018-10-18T19:07:40.064Z,15.46
2018-10-18T19:10:09.194Z,15.40
2018-10-18T19:12:37.995Z,9.76
2018-10-18T19:15:08.271Z,15.32
2018-10-18T19:17:37.362Z,15.26
2018-10-18T19:20:06.482Z,15.11
2018-10-18T19:22:35.303Z,15.04
2018-10-18T19:25:04.137Z,15.02
2018-10-18T19:27:32.956Z,14.94
2018-10-18T19:30:01.805Z,14.89
2018-10-18T19:32:30.658Z,14.87
2018-10-18T19:34:59.391Z,14.87
2018-10-18T19:37:28.596Z,14.84
2018-10-18T19:39:57.354Z,14.88
2018-10-18T19:42:26.172Z,14.84
2018-10-18T19:44:54.934Z,14.75
2018-10-18T19:47:23.670Z,14.75
2018-10-18T19:49:52.554Z,14.71
2018-10-18T19:52:21.506Z,14.69
2018-10-18T19:54:50.422Z,14.70
2018-10-18T19:57:19.097Z,14.77
2018-10-18T19:59:47.898Z,14.80
2018-10-18T20:02:16.606Z,14.82
2018-10-18T20:04:45.579Z,14.83
2018-10-18T20:07:14.271Z,14.84
2018-10-18T20:09:43.011Z,14.77
2018-10-18T20:12:12.170Z,14.68
2018-10-18T20:14:40.755Z,14.64
2018-10-18T20:17:09.549Z,14.67
2018-10-18T20:19:38.478Z,14.63
2018-10-18T20:22:10.377Z,14.59
2018-10-18T20:24:39.079Z,14.54
2018-10-18T20:27:08.457Z,14.48
2018-10-18T20:29:37.435Z,14.46
2018-10-18T20:32:06.589Z,14.42
2018-10-18T20:34:35.285Z,14.39
2018-10-18T20:37:04.135Z,14.40
2018-10-18T20:39:32.832Z,14.43
2018-10-18T20:42:01.549Z,14.50
2018-10-18T20:44:30.333Z,14.54
2018-10-18T20:46:59.224Z,14.56
2018-10-18T20:49:27.838Z,14.52
2018-10-18T20:51:56.643Z,14.52
2018-10-18T20:54:25.468Z,14.51
2018-10-18T20:56:54.181Z,14.50
2018-10-18T20:59:23.541Z,14.52
2018-10-18T21:01:52.579Z,14.51
2018-10-18T21:04:21.326Z,14.53
2018-10-18T21:06:51.205Z,14.53
2018-10-18T21:09:19.939Z,14.51
2018-10-18T21:11:48.639Z,14.47
2018-10-18T21:14:17.333Z,14.44
2018-10-18T21:16:45.975Z,14.35
2018-10-18T21:19:21.250Z,14.32
2018-10-18T21:21:49.957Z,14.29
2018-10-18T21:24:18.687Z,14.30
2018-10-18T21:26:48.756Z,14.31
2018-10-18T21:29:17.649Z,14.28
2018-10-18T21:31:46.386Z,14.21
2018-10-18T21:34:15.129Z,14.18
2018-10-18T21:36:43.770Z,14.15
2018-10-18T21:39:12.666Z,14.09
2018-10-18T21:41:41.261Z,14.03
2018-10-18T21:44:09.990Z,13.96
2018-10-18T21:46:38.704Z,13.92
2018-10-18T21:49:07.402Z,13.91
2018-10-18T21:51:36.126Z,13.92
2018-10-18T21:54:05.337Z,13.90
2018-10-18T21:56:34.135Z,13.87
2018-10-18T21:59:02.857Z,13.85
2018-10-18T22:01:31.674Z,12.61
2018-10-18T22:04:00.362Z,13.82
2018-10-18T22:06:29.013Z,13.80
2018-10-18T22:08:57.736Z,13.79
2018-10-18T22:11:26.509Z,13.75
2018-10-18T22:13:55.223Z,13.75
2018-10-18T22:16:23.937Z,13.73
2018-10-18T22:18:52.879Z,13.68
2018-10-18T22:21:21.598Z,13.69
2018-10-18T22:23:50.277Z,13.66
2018-10-18T22:26:18.915Z,13.58
2018-10-18T22:28:47.616Z,13.58
2018-10-18T22:31:16.306Z,13.65
2018-10-18T22:33:45.049Z,13.65
2018-10-18T22:36:13.716Z,13.66
2018-10-18T22:38:42.393Z,13.63
2018-10-18T22:41:12.809Z,13.61
2018-10-18T22:43:42.501Z,13.58
2018-10-18T22:46:11.334Z,13.58
2018-10-18T22:48:40.012Z,13.33
2018-10-18T22:51:08.695Z,13.52
2018-10-18T22:53:37.274Z,13.43
2018-10-18T22:56:05.985Z,13.36
2018-10-18T22:58:34.629Z,13.46
2018-10-18T23:01:03.386Z,13.52
2018-10-18T23:03:32.025Z,13.45
2018-10-18T23:06:00.718Z,13.40
2018-10-18T23:08:29.352Z,13.37
2018-10-18T23:10:58.006Z,13.41
2018-10-18T23:13:26.624Z,13.43
2018-10-18T23:15:55.305Z,13.39
2018-10-18T23:18:23.954Z,13.29
2018-10-18T23:20:52.788Z,13.26
2018-10-18T23:23:21.839Z,13.15
2018-10-18T23:25:50.566Z,13.12
2018-10-18T23:28:19.260Z,13.11
2018-10-18T23:30:48.017Z,13.06
2018-10-18T23:33:16.706Z,13.03
2018-10-18T23:35:45.352Z,13.00
2018-10-18T23:38:14.000Z,12.97
2018-10-18T23:40:42.687Z,12.92
2018-10-18T23:43:11.375Z,12.91
2018-10-18T23:45:39.985Z,12.90
2018-10-18T23:48:08.750Z,12.94
2018-10-18T23:50:37.351Z,13.02
2018-10-18T23:53:06.193Z,13.03
2018-10-18T23:55:34.880Z,12.98
2018-10-18T23:58:03.501Z,12.81
